sensor_id;sensor_type;location;lat;lon;timestamp;pressure;altitude;pressure_sealevel;temperature;humidity
49943;BME280;36011;53.362;58.948;2023-02-11T00:00:28;97442.81;;;-13.42;50.46
49943;BME280;36011;53.362;58.948;2023-02-11T00:03:29;97435.81;;;-13.49;50.08
49943;BME280;36011;53.362;58.948;2023-02-11T00:06:32;97444.06;;;-13.53;50.18
49943;BME280;36011;53.362;58.948;2023-02-11T00:09:34;97432.13;;;-13.58;50.09
49943;BME280;36011;53.362;58.948;2023-02-11T00:12:37;97428.66;;;-13.60;49.86
49943;BME280;36011;53.362;58.948;2023-02-11T00:15:40;97437.00;;;-13.62;49.85
49943;BME280;36011;53.362;58.948;2023-02-11T00:18:45;97440.28;;;-13.65;49.82
49943;BME280;36011;53.362;58.948;2023-02-11T00:21:46;97435.22;;;-13.65;50.32
49943;BME280;36011;53.362;58.948;2023-02-11T00:24:47;97444.44;;;-13.67;50.23
49943;BME280;36011;53.362;58.948;2023-02-11T00:27:51;97436.72;;;-13.70;49.99
49943;BME280;36011;53.362;58.948;2023-02-11T00:30:55;97431.53;;;-13.73;49.67
49943;BME280;36011;53.362;58.948;2023-02-11T00:33:59;97435.56;;;-13.78;49.88
49943;BME280;36011;53.362;58.948;2023-02-11T00:37:04;97442.03;;;-13.85;49.83
49943;BME280;36011;53.362;58.948;2023-02-11T00:40:06;97435.88;;;-13.91;49.78
49943;BME280;36011;53.362;58.948;2023-02-11T00:43:10;97451.06;;;-13.91;49.77
49943;BME280;36011;53.362;58.948;2023-02-11T00:46:12;97454.34;;;-13.94;49.52
49943;BME280;36011;53.362;58.948;2023-02-11T00:49:14;97452.31;;;-14.03;49.55
49943;BME280;36011;53.362;58.948;2023-02-11T00:52:15;97452.31;;;-14.03;49.60
49943;BME280;36011;53.362;58.948;2023-02-11T00:55:16;97447.78;;;-14.10;49.94
49943;BME280;36011;53.362;58.948;2023-02-11T00:58:20;97458.84;;;-14.08;49.54
49943;BME280;36011;53.362;58.948;2023-02-11T01:01:24;97447.00;;;-14.09;49.63
49943;BME280;36011;53.362;58.948;2023-02-11T01:04:31;97448.72;;;-14.08;49.58
49943;BME280;36011;53.362;58.948;2023-02-11T01:07:35;97447.13;;;-14.06;49.90
49943;BME280;36011;53.362;58.948;2023-02-11T01:10:36;97435.28;;;-14.07;49.66
49943;BME280;36011;53.362;58.948;2023-02-11T01:13:37;97451.44;;;-14.03;49.38
49943;BME280;36011;53.362;58.948;2023-02-11T01:16:39;97453.66;;;-14.11;49.29
49943;BME280;36011;53.362;58.948;2023-02-11T01:19:41;97458.53;;;-14.15;49.69
49943;BME280;36011;53.362;58.948;2023-02-11T01:22:44;97455.84;;;-14.20;49.57
49943;BME280;36011;53.362;58.948;2023-02-11T01:25:49;97460.06;;;-14.19;49.68
49943;BME280;36011;53.362;58.948;2023-02-11T01:28:50;97465.22;;;-14.17;50.82
49943;BME280;36011;53.362;58.948;2023-02-11T01:31:52;97461.53;;;-14.24;50.14
49943;BME280;36011;53.362;58.948;2023-02-11T01:34:55;97455.25;;;-14.13;51.63
49943;BME280;36011;53.362;58.948;2023-02-11T01:37:57;97457.00;;;-14.12;52.67
49943;BME280;36011;53.362;58.948;2023-02-11T01:41:03;97453.53;;;-14.14;52.64
49943;BME280;36011;53.362;58.948;2023-02-11T01:47:23;97459.72;;;-14.28;52.11
49943;BME280;36011;53.362;58.948;2023-02-11T01:50:28;97466.34;;;-14.30;52.19
49943;BME280;36011;53.362;58.948;2023-02-11T01:53:33;97459.47;;;-14.34;52.17
49943;BME280;36011;53.362;58.948;2023-02-11T01:56:58;97472.63;;;-14.41;51.97
49943;BME280;36011;53.362;58.948;2023-02-11T02:00:33;97475.00;;;-14.46;51.39
49943;BME280;36011;53.362;58.948;2023-02-11T02:03:40;97468.81;;;-14.53;51.55
49943;BME280;36011;53.362;58.948;2023-02-11T02:07:05;97466.84;;;-14.60;51.42
49943;BME280;36011;53.362;58.948;2023-02-11T02:10:18;97467.38;;;-14.67;51.50
49943;BME280;36011;53.362;58.948;2023-02-11T02:13:25;97474.72;;;-14.73;51.13
49943;BME280;36011;53.362;58.948;2023-02-11T02:16:50;97470.47;;;-14.74;51.01
49943;BME280;36011;53.362;58.948;2023-02-11T02:20:24;97471.13;;;-14.78;51.41
49943;BME280;36011;53.362;58.948;2023-02-11T02:33:59;97472.06;;;-14.96;51.10
49943;BME280;36011;53.362;58.948;2023-02-11T02:40:50;97456.50;;;-15.05;50.61
49943;BME280;36011;53.362;58.948;2023-02-11T02:43:57;97460.50;;;-15.10;50.52
49943;BME280;36011;53.362;58.948;2023-02-11T02:47:01;97464.59;;;-15.12;50.91
49943;BME280;36011;53.362;58.948;2023-02-11T02:50:08;97455.97;;;-15.17;50.52
49943;BME280;36011;53.362;58.948;2023-02-11T02:53:52;97455.81;;;-15.20;50.87
49943;BME280;36011;53.362;58.948;2023-02-11T03:10:35;97456.16;;;-15.32;51.02
49943;BME280;36011;53.362;58.948;2023-02-11T03:13:42;97443.03;;;-15.43;50.87
49943;BME280;36011;53.362;58.948;2023-02-11T03:16:49;97446.25;;;-15.47;51.32
49943;BME280;36011;53.362;58.948;2023-02-11T03:19:56;97441.06;;;-15.50;51.67
49943;BME280;36011;53.362;58.948;2023-02-11T03:23:41;97438.59;;;-15.48;52.67
49943;BME280;36011;53.362;58.948;2023-02-11T03:26:53;97443.47;;;-15.33;52.07
49943;BME280;36011;53.362;58.948;2023-02-11T03:33:13;97439.13;;;-14.58;54.92
49943;BME280;36011;53.362;58.948;2023-02-11T03:36:26;97429.25;;;-14.31;57.70
49943;BME280;36011;53.362;58.948;2023-02-11T03:39:40;97425.28;;;-14.25;58.99
49943;BME280;36011;53.362;58.948;2023-02-11T03:42:47;97427.91;;;-14.23;58.89
49943;BME280;36011;53.362;58.948;2023-02-11T03:45:53;97428.13;;;-14.38;59.81
49943;BME280;36011;53.362;58.948;2023-02-11T03:49:04;97418.50;;;-14.47;60.43
49943;BME280;36011;53.362;58.948;2023-02-11T03:52:10;97417.78;;;-14.44;60.58
49943;BME280;36011;53.362;58.948;2023-02-11T03:55:20;97426.22;;;-14.43;60.64
49943;BME280;36011;53.362;58.948;2023-02-11T03:58:28;97431.91;;;-14.28;61.11
49943;BME280;36011;53.362;58.948;2023-02-11T04:01:33;97425.97;;;-14.50;61.27
49943;BME280;36011;53.362;58.948;2023-02-11T04:04:38;97432.19;;;-14.41;61.12
49943;BME280;36011;53.362;58.948;2023-02-11T04:07:42;97427.91;;;-14.23;60.95
49943;BME280;36011;53.362;58.948;2023-02-11T04:10:47;97418.28;;;-14.32;60.92
49943;BME280;36011;53.362;58.948;2023-02-11T04:13:52;97416.47;;;-14.13;60.85
49943;BME280;36011;53.362;58.948;2023-02-11T04:16:57;97408.16;;;-14.11;60.98
49943;BME280;36011;53.362;58.948;2023-02-11T04:20:02;97412.94;;;-13.96;60.76
49943;BME280;36011;53.362;58.948;2023-02-11T04:23:08;97413.81;;;-13.73;61.00
49943;BME280;36011;53.362;58.948;2023-02-11T04:26:12;97425.09;;;-13.65;61.22
49943;BME280;36011;53.362;58.948;2023-02-11T04:29:17;97417.50;;;-13.42;61.25
49943;BME280;36011;53.362;58.948;2023-02-11T04:32:22;97424.97;;;-13.45;61.94
49943;BME280;36011;53.362;58.948;2023-02-11T04:35:26;97420.13;;;-13.39;62.47
49943;BME280;36011;53.362;58.948;2023-02-11T04:38:30;97414.72;;;-13.26;62.67
49943;BME280;36011;53.362;58.948;2023-02-11T04:41:34;97415.91;;;-13.40;62.58
49943;BME280;36011;53.362;58.948;2023-02-11T04:44:39;97415.16;;;-13.38;62.75
49943;BME280;36011;53.362;58.948;2023-02-11T04:47:43;97419.28;;;-13.40;63.25
49943;BME280;36011;53.362;58.948;2023-02-11T04:50:47;97417.72;;;-13.36;63.26
49943;BME280;36011;53.362;58.948;2023-02-11T04:53:52;97404.28;;;-13.35;63.58
49943;BME280;36011;53.362;58.948;2023-02-11T04:56:57;97411.59;;;-13.19;63.86
49943;BME280;36011;53.362;58.948;2023-02-11T05:00:02;97408.78;;;-13.02;63.41
49943;BME280;36011;53.362;58.948;2023-02-11T05:03:07;97412.94;;;-13.04;64.23
49943;BME280;36011;53.362;58.948;2023-02-11T05:06:12;97407.91;;;-13.03;64.23
49943;BME280;36011;53.362;58.948;2023-02-11T05:09:17;97412.22;;;-13.00;64.32
49943;BME280;36011;53.362;58.948;2023-02-11T05:12:23;97405.22;;;-12.83;64.48
49943;BME280;36011;53.362;58.948;2023-02-11T05:15:28;97409.72;;;-12.51;63.97
49943;BME280;36011;53.362;58.948;2023-02-11T05:18:35;97413.00;;;-12.28;63.20
49943;BME280;36011;53.362;58.948;2023-02-11T05:21:40;97412.75;;;-12.35;63.54
49943;BME280;36011;53.362;58.948;2023-02-11T05:24:45;97416.00;;;-12.14;63.77
49943;BME280;36011;53.362;58.948;2023-02-11T05:27:49;97409.09;;;-11.91;63.49
49943;BME280;36011;53.362;58.948;2023-02-11T05:30:54;97401.28;;;-11.68;63.44
49943;BME280;36011;53.362;58.948;2023-02-11T05:33:59;97393.22;;;-11.55;63.45
49943;BME280;36011;53.362;58.948;2023-02-11T05:37:06;97393.56;;;-11.13;63.28
49943;BME280;36011;53.362;58.948;2023-02-11T05:40:11;97388.88;;;-7.15;60.21
49943;BME280;36011;53.362;58.948;2023-02-11T05:43:16;97386.28;;;-2.32;50.49
49943;BME280;36011;53.362;58.948;2023-02-11T05:46:19;97382.31;;;1.39;42.71
49943;BME280;36011;53.362;58.948;2023-02-11T05:49:24;97383.34;;;3.76;37.27
49943;BME280;36011;53.362;58.948;2023-02-11T05:52:28;97386.75;;;5.37;32.09
49943;BME280;36011;53.362;58.948;2023-02-11T05:55:33;97381.59;;;6.50;29.22
49943;BME280;36011;53.362;58.948;2023-02-11T05:58:37;97386.66;;;7.57;28.08
49943;BME280;36011;53.362;58.948;2023-02-11T06:01:42;97397.72;;;8.21;25.06
49943;BME280;36011;53.362;58.948;2023-02-11T06:04:48;97388.03;;;8.78;23.85
49943;BME280;36011;53.362;58.948;2023-02-11T06:07:52;97390.66;;;9.97;23.90
49943;BME280;36011;53.362;58.948;2023-02-11T06:10:59;97386.31;;;10.75;21.69
49943;BME280;36011;53.362;58.948;2023-02-11T06:14:04;97386.72;;;10.83;21.14
49943;BME280;36011;53.362;58.948;2023-02-11T06:17:09;97380.13;;;11.20;20.64
49943;BME280;36011;53.362;58.948;2023-02-11T06:20:14;97388.97;;;12.63;19.91
49943;BME280;36011;53.362;58.948;2023-02-11T06:23:17;97388.09;;;14.06;18.77
49943;BME280;36011;53.362;58.948;2023-02-11T06:26:23;97385.25;;;12.92;18.32
49943;BME280;36011;53.362;58.948;2023-02-11T06:29:28;97381.97;;;12.62;17.73
49943;BME280;36011;53.362;58.948;2023-02-11T06:32:33;97378.94;;;13.08;18.26
49943;BME280;36011;53.362;58.948;2023-02-11T06:35:38;97376.75;;;14.77;17.05
49943;BME280;36011;53.362;58.948;2023-02-11T06:38:45;97380.69;;;14.11;16.97
49943;BME280;36011;53.362;58.948;2023-02-11T06:41:50;97381.06;;;14.30;17.00
49943;BME280;36011;53.362;58.948;2023-02-11T06:44:55;97384.31;;;14.34;16.54
49943;BME280;36011;53.362;58.948;2023-02-11T06:47:59;97378.66;;;14.51;16.57
49943;BME280;36011;53.362;58.948;2023-02-11T06:51:06;97367.81;;;14.67;16.08
49943;BME280;36011;53.362;58.948;2023-02-11T06:54:12;97375.13;;;14.88;16.11
49943;BME280;36011;53.362;58.948;2023-02-11T06:57:17;97366.66;;;15.53;16.00
49943;BME280;36011;53.362;58.948;2023-02-11T07:00:21;97375.34;;;16.56;15.26
49943;BME280;36011;53.362;58.948;2023-02-11T07:03:26;97374.63;;;16.98;15.00
49943;BME280;36011;53.362;58.948;2023-02-11T07:06:31;97379.41;;;16.83;14.86
49943;BME280;36011;53.362;58.948;2023-02-11T07:09:35;97366.50;;;17.11;14.78
49943;BME280;36011;53.362;58.948;2023-02-11T07:12:39;97360.66;;;17.17;14.70
49943;BME280;36011;53.362;58.948;2023-02-11T07:15:44;97361.53;;;17.69;14.89
49943;BME280;36011;53.362;58.948;2023-02-11T07:18:50;97360.66;;;17.59;14.36
49943;BME280;36011;53.362;58.948;2023-02-11T07:21:54;97360.75;;;16.94;14.70
49943;BME280;36011;53.362;58.948;2023-02-11T07:25:00;97352.84;;;16.06;15.27
49943;BME280;36011;53.362;58.948;2023-02-11T07:28:06;97341.84;;;15.77;15.56
49943;BME280;36011;53.362;58.948;2023-02-11T07:31:16;97341.84;;;15.99;15.40
49943;BME280;36011;53.362;58.948;2023-02-11T07:34:21;97330.84;;;16.70;14.86
49943;BME280;36011;53.362;58.948;2023-02-11T07:37:27;97327.56;;;17.10;14.81
49943;BME280;36011;53.362;58.948;2023-02-11T07:40:32;97316.09;;;17.09;14.64
49943;BME280;36011;53.362;58.948;2023-02-11T07:43:39;97310.97;;;18.00;14.44
49943;BME280;36011;53.362;58.948;2023-02-11T07:46:45;97324.63;;;19.05;13.51
49943;BME280;36011;53.362;58.948;2023-02-11T07:49:51;97310.44;;;19.81;13.31
49943;BME280;36011;53.362;58.948;2023-02-11T07:52:56;97322.84;;;19.82;13.42
49943;BME280;36011;53.362;58.948;2023-02-11T07:56:01;97317.69;;;19.98;13.14
49943;BME280;36011;53.362;58.948;2023-02-11T07:59:05;97319.94;;;20.76;13.09
49943;BME280;36011;53.362;58.948;2023-02-11T08:02:08;97311.56;;;21.85;12.12
49943;BME280;36011;53.362;58.948;2023-02-11T08:05:14;97303.59;;;23.02;11.35
49943;BME280;36011;53.362;58.948;2023-02-11T08:08:19;97299.34;;;22.83;11.56
49943;BME280;36011;53.362;58.948;2023-02-11T08:11:24;97300.03;;;23.59;11.36
49943;BME280;36011;53.362;58.948;2023-02-11T08:14:26;97300.56;;;25.04;10.80
49943;BME280;36011;53.362;58.948;2023-02-11T08:17:36;97288.72;;;26.55;9.50
49943;BME280;36011;53.362;58.948;2023-02-11T08:20:38;97294.22;;;27.75;9.33
49943;BME280;36011;53.362;58.948;2023-02-11T08:23:42;97293.25;;;28.59;8.76
49943;BME280;36011;53.362;58.948;2023-02-11T08:26:46;97282.16;;;29.42;8.61
49943;BME280;36011;53.362;58.948;2023-02-11T08:29:47;97284.63;;;29.24;8.46
49943;BME280;36011;53.362;58.948;2023-02-11T08:32:53;97286.66;;;28.82;8.68
49943;BME280;36011;53.362;58.948;2023-02-11T08:35:57;97280.06;;;29.31;8.45
49943;BME280;36011;53.362;58.948;2023-02-11T08:39:04;97283.63;;;28.50;7.86
49943;BME280;36011;53.362;58.948;2023-02-11T08:42:11;97270.19;;;27.59;8.91
49943;BME280;36011;53.362;58.948;2023-02-11T08:45:13;97267.28;;;26.68;9.48
49943;BME280;36011;53.362;58.948;2023-02-11T08:48:14;97263.25;;;26.42;9.28
49943;BME280;36011;53.362;58.948;2023-02-11T08:51:20;97261.44;;;25.98;9.15
49943;BME280;36011;53.362;58.948;2023-02-11T08:54:22;97253.28;;;25.92;8.97
49943;BME280;36011;53.362;58.948;2023-02-11T08:57:26;97245.84;;;25.79;9.23
49943;BME280;36011;53.362;58.948;2023-02-11T09:00:31;97245.41;;;26.41;8.69
49943;BME280;36011;53.362;58.948;2023-02-11T09:03:32;97239.13;;;26.77;8.77
49943;BME280;36011;53.362;58.948;2023-02-11T09:06:33;97229.50;;;26.68;8.44
49943;BME280;36011;53.362;58.948;2023-02-11T09:09:34;97234.91;;;26.68;8.85
49943;BME280;36011;53.362;58.948;2023-02-11T09:12:36;97230.38;;;25.73;9.16
49943;BME280;36011;53.362;58.948;2023-02-11T09:15:37;97229.81;;;24.49;9.64
49943;BME280;36011;53.362;58.948;2023-02-11T09:18:41;97217.28;;;24.02;9.88
49943;BME280;36011;53.362;58.948;2023-02-11T09:21:45;97207.91;;;22.28;11.15
49943;BME280;36011;53.362;58.948;2023-02-11T09:24:51;97211.38;;;21.35;11.75
49943;BME280;36011;53.362;58.948;2023-02-11T09:27:52;97223.28;;;23.65;10.83
49943;BME280;36011;53.362;58.948;2023-02-11T09:30:53;97212.81;;;23.86;10.44
49943;BME280;36011;53.362;58.948;2023-02-11T09:33:59;97213.44;;;23.41;10.86
49943;BME280;36011;53.362;58.948;2023-02-11T09:37:03;97195.69;;;22.25;11.38
49943;BME280;36011;53.362;58.948;2023-02-11T09:40:05;97188.34;;;22.60;11.32
49943;BME280;36011;53.362;58.948;2023-02-11T09:43:19;97193.84;;;23.24;10.91
49943;BME280;36011;53.362;58.948;2023-02-11T09:46:24;97191.22;;;23.63;10.65
49943;BME280;36011;53.362;58.948;2023-02-11T09:49:52;97185.25;;;21.29;12.10
49943;BME280;36011;53.362;58.948;2023-02-11T09:56:18;97168.13;;;19.43;12.46
49943;BME280;36011;53.362;58.948;2023-02-11T09:59:23;97171.97;;;19.31;12.68
49943;BME280;36011;53.362;58.948;2023-02-11T10:02:55;97168.47;;;19.67;12.42
49943;BME280;36011;53.362;58.948;2023-02-11T10:06:05;97157.97;;;18.33;13.65
49943;BME280;36011;53.362;58.948;2023-02-11T10:09:17;97155.09;;;16.32;15.25
49943;BME280;36011;53.362;58.948;2023-02-11T10:22:38;97147.84;;;16.55;16.31
49943;BME280;36011;53.362;58.948;2023-02-11T10:25:48;97148.19;;;17.14;16.04
49943;BME280;36011;53.362;58.948;2023-02-11T10:28:54;97147.59;;;17.81;15.25
49943;BME280;36011;53.362;58.948;2023-02-11T10:32:03;97149.03;;;17.14;15.72
49943;BME280;36011;53.362;58.948;2023-02-11T10:35:21;97149.56;;;16.24;16.64
49943;BME280;36011;53.362;58.948;2023-02-11T10:38:25;97159.19;;;15.49;17.36
49943;BME280;36011;53.362;58.948;2023-02-11T10:41:33;97152.09;;;15.93;16.99
49943;BME280;36011;53.362;58.948;2023-02-11T10:44:52;97157.25;;;15.74;17.10
49943;BME280;36011;53.362;58.948;2023-02-11T10:47:55;97150.63;;;16.54;16.27
49943;BME280;36011;53.362;58.948;2023-02-11T10:51:23;97156.38;;;16.38;16.50
49943;BME280;36011;53.362;58.948;2023-02-11T10:54:25;97151.69;;;16.09;16.33
49943;BME280;36011;53.362;58.948;2023-02-11T11:00:53;97142.63;;;13.37;17.69
49943;BME280;36011;53.362;58.948;2023-02-11T11:03:55;97146.50;;;12.44;18.16
49943;BME280;36011;53.362;58.948;2023-02-11T11:07:22;97143.91;;;11.62;19.00
49943;BME280;36011;53.362;58.948;2023-02-11T11:10:39;97139.91;;;10.58;19.84
49943;BME280;36011;53.362;58.948;2023-02-11T11:16:55;97138.03;;;10.60;19.77
49943;BME280;36011;53.362;58.948;2023-02-11T11:23:25;97137.06;;;7.38;22.42
49943;BME280;36011;53.362;58.948;2023-02-11T11:26:41;97136.31;;;7.17;22.99
49943;BME280;36011;53.362;58.948;2023-02-11T11:29:51;97133.06;;;6.93;23.37
49943;BME280;36011;53.362;58.948;2023-02-11T11:32:56;97131.75;;;5.19;25.92
49943;BME280;36011;53.362;58.948;2023-02-11T11:36:19;97139.25;;;4.11;26.96
49943;BME280;36011;53.362;58.948;2023-02-11T11:39:32;97140.53;;;4.71;26.10
49943;BME280;36011;53.362;58.948;2023-02-11T11:42:37;97131.19;;;5.11;25.43
49943;BME280;36011;53.362;58.948;2023-02-11T11:45:51;97135.59;;;4.87;26.00
49943;BME280;36011;53.362;58.948;2023-02-11T11:48:57;97133.81;;;5.11;25.63
49943;BME280;36011;53.362;58.948;2023-02-11T11:52:10;97128.09;;;5.23;25.73
49943;BME280;36011;53.362;58.948;2023-02-11T11:55:20;97133.19;;;5.26;25.56
49943;BME280;36011;53.362;58.948;2023-02-11T11:58:22;97131.75;;;5.19;25.47
49943;BME280;36011;53.362;58.948;2023-02-11T12:11:24;97124.66;;;4.30;26.26
49943;BME280;36011;53.362;58.948;2023-02-11T12:21:31;97135.66;;;0.37;30.92
49943;BME280;36011;53.362;58.948;2023-02-11T12:44:57;97169.19;;;-4.58;40.36
49943;BME280;36011;53.362;58.948;2023-02-11T12:48:04;97165.75;;;-4.97;42.13
49943;BME280;36011;53.362;58.948;2023-02-11T12:51:23;97163.16;;;-5.14;43.05
49943;BME280;36011;53.362;58.948;2023-02-11T12:54:54;97165.59;;;-5.58;43.20
49943;BME280;36011;53.362;58.948;2023-02-11T12:57:59;97162.94;;;-6.00;43.96
49943;BME280;36011;53.362;58.948;2023-02-11T13:01:45;97158.59;;;-6.12;43.64
49943;BME280;36011;53.362;58.948;2023-02-11T13:05:03;97157.66;;;-6.23;45.19
49943;BME280;36011;53.362;58.948;2023-02-11T13:11:23;97155.47;;;-6.99;47.14
49943;BME280;36011;53.362;58.948;2023-02-11T13:14:30;97139.78;;;-7.36;48.37
49943;BME280;36011;53.362;58.948;2023-02-11T13:17:42;97162.69;;;-7.45;48.90
49943;BME280;36011;53.362;58.948;2023-02-11T13:27:14;97192.34;;;-7.59;48.22
49943;BME280;36011;53.362;58.948;2023-02-11T13:30:34;97178.22;;;-7.25;48.22
49943;BME280;36011;53.362;58.948;2023-02-11T13:33:42;97186.28;;;-6.81;49.25
49943;BME280;36011;53.362;58.948;2023-02-11T13:36:53;97179.88;;;-6.23;49.31
49943;BME280;36011;53.362;58.948;2023-02-11T13:40:02;97195.34;;;-6.08;48.63
49943;BME280;36011;53.362;58.948;2023-02-11T13:43:06;97204.69;;;-6.12;49.05
49943;BME280;36011;53.362;58.948;2023-02-11T13:46:18;97207.50;;;-5.56;49.37
49943;BME280;36011;53.362;58.948;2023-02-11T13:49:23;97198.09;;;-5.59;50.00
49943;BME280;36011;53.362;58.948;2023-02-11T13:52:31;97202.34;;;-5.61;50.46
49943;BME280;36011;53.362;58.948;2023-02-11T13:55:34;97225.34;;;-5.75;51.45
49943;BME280;36011;53.362;58.948;2023-02-11T13:58:49;97246.63;;;-5.90;51.40
49943;BME280;36011;53.362;58.948;2023-02-11T14:09:42;97232.94;;;-6.01;52.86
49943;BME280;36011;53.362;58.948;2023-02-11T14:12:38;97231.25;;;-5.90;53.36
49943;BME280;36011;53.362;58.948;2023-02-11T14:15:45;97232.75;;;-6.28;54.46
49943;BME280;36011;53.362;58.948;2023-02-11T14:21:50;97269.72;;;-6.98;55.64
49943;BME280;36011;53.362;58.948;2023-02-11T14:25:04;97268.88;;;-6.94;55.67
49943;BME280;36011;53.362;58.948;2023-02-11T14:28:24;97260.78;;;-7.34;56.27
49943;BME280;36011;53.362;58.948;2023-02-11T14:35:20;97261.59;;;-7.36;56.48
49943;BME280;36011;53.362;58.948;2023-02-11T14:42:04;97276.00;;;-7.46;56.56
49943;BME280;36011;53.362;58.948;2023-02-11T14:45:19;97281.06;;;-7.49;57.13
49943;BME280;36011;53.362;58.948;2023-02-11T14:48:34;97273.53;;;-7.37;57.13
49943;BME280;36011;53.362;58.948;2023-02-11T14:51:41;97257.13;;;-7.56;57.64
49943;BME280;36011;53.362;58.948;2023-02-11T14:54:52;97257.34;;;-7.37;57.39
49943;BME280;36011;53.362;58.948;2023-02-11T14:58:06;97259.78;;;-7.48;57.31
49943;BME280;36011;53.362;58.948;2023-02-11T15:01:26;97254.19;;;-7.86;58.45
49943;BME280;36011;53.362;58.948;2023-02-11T15:04:33;97254.16;;;-7.88;58.64
49943;BME280;36011;53.362;58.948;2023-02-11T15:07:44;97255.78;;;-7.95;58.51
49943;BME280;36011;53.362;58.948;2023-02-11T15:10:51;97261.47;;;-8.13;59.04
49943;BME280;36011;53.362;58.948;2023-02-11T15:14:00;97260.50;;;-8.22;59.20
49943;BME280;36011;53.362;58.948;2023-02-11T15:17:17;97251.84;;;-8.30;59.09
49943;BME280;36011;53.362;58.948;2023-02-11T15:20:24;97272.69;;;-8.03;59.44
49943;BME280;36011;53.362;58.948;2023-02-11T15:23:28;97279.34;;;-8.13;59.47
49943;BME280;36011;53.362;58.948;2023-02-11T15:26:34;97272.53;;;-8.14;59.34
49943;BME280;36011;53.362;58.948;2023-02-11T15:29:42;97280.91;;;-8.22;59.00
49943;BME280;36011;53.362;58.948;2023-02-11T15:32:47;97285.00;;;-8.33;58.80
49943;BME280;36011;53.362;58.948;2023-02-11T15:35:53;97288.44;;;-8.30;58.53
49943;BME280;36011;53.362;58.948;2023-02-11T15:42:30;97301.84;;;-8.46;58.28
49943;BME280;36011;53.362;58.948;2023-02-11T15:45:35;97300.03;;;-8.53;58.52
49943;BME280;36011;53.362;58.948;2023-02-11T15:48:48;97298.59;;;-8.33;57.93
49943;BME280;36011;53.362;58.948;2023-02-11T15:51:52;97311.63;;;-8.71;58.18
49943;BME280;36011;53.362;58.948;2023-02-11T15:54:57;97304.59;;;-8.84;58.61
49943;BME280;36011;53.362;58.948;2023-02-11T15:58:01;97315.97;;;-9.14;59.03
49943;BME280;36011;53.362;58.948;2023-02-11T16:01:03;97310.28;;;-8.99;58.74
49943;BME280;36011;53.362;58.948;2023-02-11T16:04:05;97309.53;;;-8.93;58.83
49943;BME280;36011;53.362;58.948;2023-02-11T16:07:42;97314.94;;;-8.75;57.89
49943;BME280;36011;53.362;58.948;2023-02-11T16:10:53;97288.53;;;-8.78;58.06
49943;BME280;36011;53.362;58.948;2023-02-11T16:14:00;97277.63;;;-8.70;57.57
49943;BME280;36011;53.362;58.948;2023-02-11T16:17:44;97293.50;;;-8.86;57.51
49943;BME280;36011;53.362;58.948;2023-02-11T16:20:47;97297.38;;;-9.07;58.10
49943;BME280;36011;53.362;58.948;2023-02-11T16:23:52;97292.81;;;-9.24;58.13
49943;BME280;36011;53.362;58.948;2023-02-11T16:26:59;97290.47;;;-9.14;58.08
49943;BME280;36011;53.362;58.948;2023-02-11T16:30:01;97302.16;;;-9.25;58.53
49943;BME280;36011;53.362;58.948;2023-02-11T16:33:09;97297.69;;;-9.35;58.33
49943;BME280;36011;53.362;58.948;2023-02-11T16:36:15;97305.28;;;-9.38;58.07
49943;BME280;36011;53.362;58.948;2023-02-11T16:39:21;97290.63;;;-9.49;58.10
49943;BME280;36011;53.362;58.948;2023-02-11T16:42:25;97299.31;;;-9.39;57.59
49943;BME280;36011;53.362;58.948;2023-02-11T16:45:29;97299.72;;;-9.61;57.64
49943;BME280;36011;53.362;58.948;2023-02-11T16:48:31;97305.41;;;-9.73;57.58
49943;BME280;36011;53.362;58.948;2023-02-11T16:51:37;97307.84;;;-9.79;57.50
49943;BME280;36011;53.362;58.948;2023-02-11T16:54:39;97312.88;;;-9.81;57.53
49943;BME280;36011;53.362;58.948;2023-02-11T16:57:43;97310.22;;;-9.85;57.67
49943;BME280;36011;53.362;58.948;2023-02-11T17:00:47;97314.75;;;-9.72;57.39
49943;BME280;36011;53.362;58.948;2023-02-11T17:03:51;97314.03;;;-9.68;56.77
49943;BME280;36011;53.362;58.948;2023-02-11T17:06:55;97301.28;;;-9.68;56.65
49943;BME280;36011;53.362;58.948;2023-02-11T17:10:02;97317.88;;;-9.85;57.23
49943;BME280;36011;53.362;58.948;2023-02-11T17:13:04;97316.03;;;-9.92;56.88
49943;BME280;36011;53.362;58.948;2023-02-11T17:16:11;97303.97;;;-10.00;57.12
49943;BME280;36011;53.362;58.948;2023-02-11T17:19:19;97304.25;;;-9.87;56.76
49943;BME280;36011;53.362;58.948;2023-02-11T17:22:27;97290.56;;;-9.92;56.39
49943;BME280;36011;53.362;58.948;2023-02-11T17:25:28;97288.81;;;-9.94;56.81
49943;BME280;36011;53.362;58.948;2023-02-11T17:28:34;97300.78;;;-9.91;56.63
49943;BME280;36011;53.362;58.948;2023-02-11T17:31:42;97320.75;;;-9.70;56.29
49943;BME280;36011;53.362;58.948;2023-02-11T17:34:43;97321.44;;;-9.77;56.40
49943;BME280;36011;53.362;58.948;2023-02-11T17:37:45;97327.13;;;-9.89;56.44
49943;BME280;36011;53.362;58.948;2023-02-11T17:40:56;97334.53;;;-10.00;57.00
49943;BME280;36011;53.362;58.948;2023-02-11T17:44:00;97338.88;;;-9.96;56.72
49943;BME280;36011;53.362;58.948;2023-02-11T17:47:05;97346.44;;;-9.99;56.97
49943;BME280;36011;53.362;58.948;2023-02-11T17:50:07;97352.25;;;-10.04;56.57
49943;BME280;36011;53.362;58.948;2023-02-11T17:53:08;97344.34;;;-10.15;56.38
49943;BME280;36011;53.362;58.948;2023-02-11T17:56:11;97354.53;;;-10.15;56.65
49943;BME280;36011;53.362;58.948;2023-02-11T17:59:16;97357.16;;;-10.12;56.69
49943;BME280;36011;53.362;58.948;2023-02-11T18:02:20;97374.28;;;-10.05;56.88
49943;BME280;36011;53.362;58.948;2023-02-11T18:05:24;97373.66;;;-9.96;57.05
49943;BME280;36011;53.362;58.948;2023-02-11T18:08:27;97377.25;;;-9.86;56.90
49943;BME280;36011;53.362;58.948;2023-02-11T18:11:35;97382.28;;;-9.89;56.79
49943;BME280;36011;53.362;58.948;2023-02-11T18:14:39;97365.78;;;-10.05;56.90
49943;BME280;36011;53.362;58.948;2023-02-11T18:17:43;97368.44;;;-10.01;57.05
49943;BME280;36011;53.362;58.948;2023-02-11T18:20:47;97363.56;;;-9.91;56.72